sensor_id;sensor_type;location;lat;lon;timestamp;P1;durP1;ratioP1;P2;durP2;ratioP2
15240;SDS011;7723;52.170;9.978;2023-07-31T00:02:08;1.88;;;1.30;;
15240;SDS011;7723;52.170;9.978;2023-07-31T00:04:35;5.15;;;1.67;;
15240;SDS011;7723;52.170;9.978;2023-07-31T00:07:02;2.58;;;1.65;;
15240;SDS011;7723;52.170;9.978;2023-07-31T00:09:32;2.67;;;1.40;;
15240;SDS011;7723;52.170;9.978;2023-07-31T00:12:00;1.77;;;1.20;;
15240;SDS011;7723;52.170;9.978;2023-07-31T00:14:27;1.65;;;1.17;;
15240;SDS011;7723;52.170;9.978;2023-07-31T00:16:54;3.25;;;1.25;;
15240;SDS011;7723;52.170;9.978;2023-07-31T00:19:21;1.55;;;1.17;;
15240;SDS011;7723;52.170;9.978;2023-07-31T00:21:48;1.98;;;1.27;;
15240;SDS011;7723;52.170;9.978;2023-07-31T00:24:15;1.38;;;1.05;;
15240;SDS011;7723;52.170;9.978;2023-07-31T00:26:43;2.97;;;1.10;;
15240;SDS011;7723;52.170;9.978;2023-07-31T00:29:10;1.13;;;0.98;;
15240;SDS011;7723;52.170;9.978;2023-07-31T00:31:38;1.35;;;1.02;;
15240;SDS011;7723;52.170;9.978;2023-07-31T00:34:06;3.88;;;1.13;;
15240;SDS011;7723;52.170;9.978;2023-07-31T00:36:33;3.00;;;1.02;;
15240;SDS011;7723;52.170;9.978;2023-07-31T00:39:00;1.02;;;0.90;;
15240;SDS011;7723;52.170;9.978;2023-07-31T00:41:29;2.78;;;1.27;;
15240;SDS011;7723;52.170;9.978;2023-07-31T00:43:58;1.00;;;0.90;;
15240;SDS011;7723;52.170;9.978;2023-07-31T00:46:25;2.75;;;1.00;;
15240;SDS011;7723;52.170;9.978;2023-07-31T00:48:52;2.13;;;1.30;;
15240;SDS011;7723;52.170;9.978;2023-07-31T00:51:19;2.22;;;1.42;;
15240;SDS011;7723;52.170;9.978;2023-07-31T00:53:45;2.80;;;1.48;;
15240;SDS011;7723;52.170;9.978;2023-07-31T00:56:13;1.45;;;0.90;;
15240;SDS011;7723;52.170;9.978;2023-07-31T00:58:41;1.63;;;1.20;;
15240;SDS011;7723;52.170;9.978;2023-07-31T01:01:10;1.40;;;1.05;;
15240;SDS011;7723;52.170;9.978;2023-07-31T01:03:37;2.40;;;1.00;;
15240;SDS011;7723;52.170;9.978;2023-07-31T01:06:12;1.33;;;0.90;;
15240;SDS011;7723;52.170;9.978;2023-07-31T01:08:47;1.33;;;1.02;;
15240;SDS011;7723;52.170;9.978;2023-07-31T01:11:21;2.10;;;1.13;;
15240;SDS011;7723;52.170;9.978;2023-07-31T01:13:53;1.38;;;1.00;;
15240;SDS011;7723;52.170;9.978;2023-07-31T01:16:22;1.40;;;0.73;;
15240;SDS011;7723;52.170;9.978;2023-07-31T01:18:49;2.70;;;1.05;;
15240;SDS011;7723;52.170;9.978;2023-07-31T01:21:21;1.42;;;1.05;;
15240;SDS011;7723;52.170;9.978;2023-07-31T01:24:08;1.95;;;0.90;;
15240;SDS011;7723;52.170;9.978;2023-07-31T01:26:49;1.85;;;1.08;;
15240;SDS011;7723;52.170;9.978;2023-07-31T01:29:23;2.22;;;0.85;;
15240;SDS011;7723;52.170;9.978;2023-07-31T01:31:56;1.90;;;0.82;;
15240;SDS011;7723;52.170;9.978;2023-07-31T01:34:27;2.20;;;0.85;;
15240;SDS011;7723;52.170;9.978;2023-07-31T01:36:55;0.85;;;0.70;;
15240;SDS011;7723;52.170;9.978;2023-07-31T01:39:23;1.92;;;1.33;;
15240;SDS011;7723;52.170;9.978;2023-07-31T01:41:51;1.40;;;0.88;;
15240;SDS011;7723;52.170;9.978;2023-07-31T01:44:19;1.23;;;0.63;;
15240;SDS011;7723;52.170;9.978;2023-07-31T01:46:46;1.00;;;0.63;;
15240;SDS011;7723;52.170;9.978;2023-07-31T01:49:13;1.77;;;1.08;;
15240;SDS011;7723;52.170;9.978;2023-07-31T01:51:40;0.98;;;0.60;;
15240;SDS011;7723;52.170;9.978;2023-07-31T01:54:07;1.58;;;0.70;;
15240;SDS011;7723;52.170;9.978;2023-07-31T01:56:34;1.85;;;1.00;;
15240;SDS011;7723;52.170;9.978;2023-07-31T01:59:02;0.80;;;0.63;;
15240;SDS011;7723;52.170;9.978;2023-07-31T02:01:29;0.90;;;0.80;;
15240;SDS011;7723;52.170;9.978;2023-07-31T02:03:56;0.70;;;0.68;;
15240;SDS011;7723;52.170;9.978;2023-07-31T02:06:24;2.05;;;0.70;;
15240;SDS011;7723;52.170;9.978;2023-07-31T02:08:51;2.25;;;1.20;;
15240;SDS011;7723;52.170;9.978;2023-07-31T02:11:18;1.88;;;0.90;;
15240;SDS011;7723;52.170;9.978;2023-07-31T02:13:45;1.30;;;0.93;;
15240;SDS011;7723;52.170;9.978;2023-07-31T02:16:13;1.83;;;1.13;;
15240;SDS011;7723;52.170;9.978;2023-07-31T02:18:40;0.70;;;0.70;;
15240;SDS011;7723;52.170;9.978;2023-07-31T02:21:07;1.48;;;1.10;;
15240;SDS011;7723;52.170;9.978;2023-07-31T02:23:34;1.65;;;1.00;;
15240;SDS011;7723;52.170;9.978;2023-07-31T02:26:02;1.55;;;1.23;;
15240;SDS011;7723;52.170;9.978;2023-07-31T02:28:29;1.90;;;1.30;;
15240;SDS011;7723;52.170;9.978;2023-07-31T02:30:56;1.60;;;0.90;;
15240;SDS011;7723;52.170;9.978;2023-07-31T02:33:24;2.35;;;1.48;;
15240;SDS011;7723;52.170;9.978;2023-07-31T02:35:51;1.77;;;0.80;;
15240;SDS011;7723;52.170;9.978;2023-07-31T02:38:18;0.85;;;0.75;;
15240;SDS011;7723;52.170;9.978;2023-07-31T02:40:46;2.92;;;0.80;;
15240;SDS011;7723;52.170;9.978;2023-07-31T02:43:13;1.73;;;0.95;;
15240;SDS011;7723;52.170;9.978;2023-07-31T02:45:40;6.90;;;0.93;;
15240;SDS011;7723;52.170;9.978;2023-07-31T02:48:07;1.33;;;1.10;;
15240;SDS011;7723;52.170;9.978;2023-07-31T02:50:35;1.33;;;0.90;;
15240;SDS011;7723;52.170;9.978;2023-07-31T02:53:03;1.52;;;0.98;;
15240;SDS011;7723;52.170;9.978;2023-07-31T02:55:30;1.55;;;0.85;;
15240;SDS011;7723;52.170;9.978;2023-07-31T02:57:57;0.93;;;0.80;;
15240;SDS011;7723;52.170;9.978;2023-07-31T03:00:25;1.35;;;0.95;;
15240;SDS011;7723;52.170;9.978;2023-07-31T03:02:52;1.00;;;0.70;;
15240;SDS011;7723;52.170;9.978;2023-07-31T03:05:19;0.65;;;0.63;;
15240;SDS011;7723;52.170;9.978;2023-07-31T03:07:47;1.55;;;0.70;;
15240;SDS011;7723;52.170;9.978;2023-07-31T03:10:14;0.90;;;0.57;;
15240;SDS011;7723;52.170;9.978;2023-07-31T03:12:41;0.80;;;0.80;;
15240;SDS011;7723;52.170;9.978;2023-07-31T03:15:09;0.85;;;0.60;;
15240;SDS011;7723;52.170;9.978;2023-07-31T03:17:36;0.85;;;0.70;;
15240;SDS011;7723;52.170;9.978;2023-07-31T03:20:03;0.63;;;0.63;;
15240;SDS011;7723;52.170;9.978;2023-07-31T03:22:31;1.67;;;0.80;;
15240;SDS011;7723;52.170;9.978;2023-07-31T03:25:01;0.75;;;0.73;;
15240;SDS011;7723;52.170;9.978;2023-07-31T03:27:28;2.75;;;0.95;;
15240;SDS011;7723;52.170;9.978;2023-07-31T03:29:55;0.77;;;0.60;;
15240;SDS011;7723;52.170;9.978;2023-07-31T03:32:22;1.20;;;0.90;;
15240;SDS011;7723;52.170;9.978;2023-07-31T03:34:50;0.60;;;0.50;;
15240;SDS011;7723;52.170;9.978;2023-07-31T03:37:17;0.70;;;0.60;;
15240;SDS011;7723;52.170;9.978;2023-07-31T03:39:44;1.02;;;0.70;;
15240;SDS011;7723;52.170;9.978;2023-07-31T03:42:12;1.48;;;0.80;;
15240;SDS011;7723;52.170;9.978;2023-07-31T03:44:39;0.63;;;0.63;;
15240;SDS011;7723;52.170;9.978;2023-07-31T03:47:07;0.70;;;0.70;;
15240;SDS011;7723;52.170;9.978;2023-07-31T03:49:34;1.05;;;0.60;;
15240;SDS011;7723;52.170;9.978;2023-07-31T03:52:01;0.80;;;0.70;;
15240;SDS011;7723;52.170;9.978;2023-07-31T03:54:28;2.22;;;0.70;;
15240;SDS011;7723;52.170;9.978;2023-07-31T03:56:55;0.80;;;0.70;;
15240;SDS011;7723;52.170;9.978;2023-07-31T03:59:23;0.80;;;0.80;;
15240;SDS011;7723;52.170;9.978;2023-07-31T04:01:50;3.25;;;0.70;;
15240;SDS011;7723;52.170;9.978;2023-07-31T04:04:17;1.15;;;0.80;;
15240;SDS011;7723;52.170;9.978;2023-07-31T04:06:45;2.38;;;0.85;;
15240;SDS011;7723;52.170;9.978;2023-07-31T04:09:12;0.93;;;0.75;;
15240;SDS011;7723;52.170;9.978;2023-07-31T04:11:39;0.90;;;0.65;;
15240;SDS011;7723;52.170;9.978;2023-07-31T04:14:06;0.88;;;0.65;;
15240;SDS011;7723;52.170;9.978;2023-07-31T04:16:34;1.15;;;0.98;;
15240;SDS011;7723;52.170;9.978;2023-07-31T04:19:01;0.90;;;0.70;;
15240;SDS011;7723;52.170;9.978;2023-07-31T04:21:29;1.02;;;0.90;;
15240;SDS011;7723;52.170;9.978;2023-07-31T04:23:57;0.93;;;0.60;;
15240;SDS011;7723;52.170;9.978;2023-07-31T04:26:24;0.60;;;0.55;;
15240;SDS011;7723;52.170;9.978;2023-07-31T04:28:51;2.38;;;0.93;;
15240;SDS011;7723;52.170;9.978;2023-07-31T04:31:18;1.35;;;0.90;;
15240;SDS011;7723;52.170;9.978;2023-07-31T04:33:46;1.40;;;0.82;;
15240;SDS011;7723;52.170;9.978;2023-07-31T04:36:13;3.42;;;0.90;;
15240;SDS011;7723;52.170;9.978;2023-07-31T04:38:40;1.48;;;0.50;;
15240;SDS011;7723;52.170;9.978;2023-07-31T04:41:07;1.10;;;0.70;;
15240;SDS011;7723;52.170;9.978;2023-07-31T04:43:34;1.33;;;0.60;;
15240;SDS011;7723;52.170;9.978;2023-07-31T04:46:04;1.52;;;0.95;;
15240;SDS011;7723;52.170;9.978;2023-07-31T04:48:31;2.45;;;0.70;;
15240;SDS011;7723;52.170;9.978;2023-07-31T04:50:59;0.80;;;0.50;;
15240;SDS011;7723;52.170;9.978;2023-07-31T04:53:26;0.95;;;0.60;;
15240;SDS011;7723;52.170;9.978;2023-07-31T04:55:54;0.90;;;0.63;;
15240;SDS011;7723;52.170;9.978;2023-07-31T04:58:21;0.70;;;0.52;;
15240;SDS011;7723;52.170;9.978;2023-07-31T05:00:48;0.73;;;0.55;;
15240;SDS011;7723;52.170;9.978;2023-07-31T05:03:15;1.13;;;0.88;;
15240;SDS011;7723;52.170;9.978;2023-07-31T05:05:42;1.63;;;0.70;;
15240;SDS011;7723;52.170;9.978;2023-07-31T05:08:10;1.98;;;1.10;;
15240;SDS011;7723;52.170;9.978;2023-07-31T05:10:37;2.10;;;1.20;;
15240;SDS011;7723;52.170;9.978;2023-07-31T05:13:04;4.38;;;1.40;;
15240;SDS011;7723;52.170;9.978;2023-07-31T05:15:31;2.28;;;1.67;;
15240;SDS011;7723;52.170;9.978;2023-07-31T05:17:59;2.70;;;2.00;;
15240;SDS011;7723;52.170;9.978;2023-07-31T05:20:26;3.25;;;2.15;;
15240;SDS011;7723;52.170;9.978;2023-07-31T05:22:53;7.53;;;2.50;;
15240;SDS011;7723;52.170;9.978;2023-07-31T05:25:21;14.38;;;3.35;;
15240;SDS011;7723;52.170;9.978;2023-07-31T05:27:49;4.85;;;2.75;;
15240;SDS011;7723;52.170;9.978;2023-07-31T05:30:16;5.55;;;3.00;;
15240;SDS011;7723;52.170;9.978;2023-07-31T05:32:43;3.17;;;2.65;;
15240;SDS011;7723;52.170;9.978;2023-07-31T05:35:10;10.80;;;4.40;;
15240;SDS011;7723;52.170;9.978;2023-07-31T05:37:37;5.43;;;3.72;;
15240;SDS011;7723;52.170;9.978;2023-07-31T05:40:05;5.03;;;3.70;;
15240;SDS011;7723;52.170;9.978;2023-07-31T05:42:34;6.18;;;4.00;;
15240;SDS011;7723;52.170;9.978;2023-07-31T05:45:04;10.20;;;4.53;;
15240;SDS011;7723;52.170;9.978;2023-07-31T05:47:31;6.93;;;4.32;;
15240;SDS011;7723;52.170;9.978;2023-07-31T05:49:59;6.63;;;3.95;;
15240;SDS011;7723;52.170;9.978;2023-07-31T05:52:26;7.45;;;3.90;;
15240;SDS011;7723;52.170;9.978;2023-07-31T05:54:54;4.63;;;3.55;;
15240;SDS011;7723;52.170;9.978;2023-07-31T05:57:21;5.43;;;3.45;;
15240;SDS011;7723;52.170;9.978;2023-07-31T05:59:49;6.18;;;3.60;;
15240;SDS011;7723;52.170;9.978;2023-07-31T06:02:18;5.65;;;3.30;;
15240;SDS011;7723;52.170;9.978;2023-07-31T06:04:45;5.03;;;3.47;;
15240;SDS011;7723;52.170;9.978;2023-07-31T06:07:12;5.18;;;2.92;;
15240;SDS011;7723;52.170;9.978;2023-07-31T06:09:39;4.55;;;2.80;;
15240;SDS011;7723;52.170;9.978;2023-07-31T06:12:07;4.53;;;2.90;;
15240;SDS011;7723;52.170;9.978;2023-07-31T06:14:34;2.97;;;2.50;;
15240;SDS011;7723;52.170;9.978;2023-07-31T06:17:03;3.25;;;2.30;;
15240;SDS011;7723;52.170;9.978;2023-07-31T06:19:30;4.65;;;2.85;;
15240;SDS011;7723;52.170;9.978;2023-07-31T06:21:57;4.10;;;2.67;;
15240;SDS011;7723;52.170;9.978;2023-07-31T06:24:24;4.00;;;2.97;;
15240;SDS011;7723;52.170;9.978;2023-07-31T06:26:51;4.93;;;3.05;;
15240;SDS011;7723;52.170;9.978;2023-07-31T06:29:19;5.63;;;3.30;;
15240;SDS011;7723;52.170;9.978;2023-07-31T06:31:46;4.22;;;3.28;;
15240;SDS011;7723;52.170;9.978;2023-07-31T06:34:14;5.65;;;3.53;;
15240;SDS011;7723;52.170;9.978;2023-07-31T06:36:41;6.40;;;4.05;;
15240;SDS011;7723;52.170;9.978;2023-07-31T06:39:08;6.88;;;4.10;;
15240;SDS011;7723;52.170;9.978;2023-07-31T06:41:35;6.85;;;4.13;;
15240;SDS011;7723;52.170;9.978;2023-07-31T06:44:03;8.65;;;4.10;;
15240;SDS011;7723;52.170;9.978;2023-07-31T06:46:30;6.65;;;4.85;;
15240;SDS011;7723;52.170;9.978;2023-07-31T06:48:57;7.95;;;4.43;;
15240;SDS011;7723;52.170;9.978;2023-07-31T06:51:26;8.32;;;4.53;;
15240;SDS011;7723;52.170;9.978;2023-07-31T06:53:53;8.82;;;5.38;;
15240;SDS011;7723;52.170;9.978;2023-07-31T06:56:20;11.68;;;6.43;;
15240;SDS011;7723;52.170;9.978;2023-07-31T06:58:48;9.70;;;6.07;;
15240;SDS011;7723;52.170;9.978;2023-07-31T07:01:15;10.40;;;5.90;;
15240;SDS011;7723;52.170;9.978;2023-07-31T07:03:42;11.63;;;5.75;;
15240;SDS011;7723;52.170;9.978;2023-07-31T07:06:09;11.90;;;6.20;;
15240;SDS011;7723;52.170;9.978;2023-07-31T07:08:37;9.90;;;5.13;;
15240;SDS011;7723;52.170;9.978;2023-07-31T07:11:04;8.65;;;4.97;;
15240;SDS011;7723;52.170;9.978;2023-07-31T07:13:31;11.55;;;6.13;;
15240;SDS011;7723;52.170;9.978;2023-07-31T07:15:59;11.15;;;5.40;;
15240;SDS011;7723;52.170;9.978;2023-07-31T07:18:26;9.10;;;5.30;;
15240;SDS011;7723;52.170;9.978;2023-07-31T07:20:53;9.38;;;5.40;;
15240;SDS011;7723;52.170;9.978;2023-07-31T07:23:22;9.60;;;4.72;;
15240;SDS011;7723;52.170;9.978;2023-07-31T07:25:51;9.55;;;4.97;;
15240;SDS011;7723;52.170;9.978;2023-07-31T07:28:18;9.43;;;5.00;;
15240;SDS011;7723;52.170;9.978;2023-07-31T07:30:45;8.95;;;4.60;;
15240;SDS011;7723;52.170;9.978;2023-07-31T07:33:17;9.15;;;4.35;;
15240;SDS011;7723;52.170;9.978;2023-07-31T07:35:44;8.15;;;4.13;;
15240;SDS011;7723;52.170;9.978;2023-07-31T07:38:11;10.88;;;4.72;;
15240;SDS011;7723;52.170;9.978;2023-07-31T07:40:39;6.25;;;4.40;;
15240;SDS011;7723;52.170;9.978;2023-07-31T07:43:08;9.43;;;4.93;;
15240;SDS011;7723;52.170;9.978;2023-07-31T07:45:35;6.55;;;4.40;;
15240;SDS011;7723;52.170;9.978;2023-07-31T07:48:02;8.85;;;4.80;;
15240;SDS011;7723;52.170;9.978;2023-07-31T07:50:29;10.05;;;4.18;;
15240;SDS011;7723;52.170;9.978;2023-07-31T07:52:57;7.93;;;4.82;;
15240;SDS011;7723;52.170;9.978;2023-07-31T07:55:25;9.45;;;4.32;;
15240;SDS011;7723;52.170;9.978;2023-07-31T07:57:52;5.90;;;3.72;;
15240;SDS011;7723;52.170;9.978;2023-07-31T08:00:21;7.55;;;4.53;;
15240;SDS011;7723;52.170;9.978;2023-07-31T08:02:48;6.15;;;4.35;;
15240;SDS011;7723;52.170;9.978;2023-07-31T08:05:15;7.63;;;4.70;;
15240;SDS011;7723;52.170;9.978;2023-07-31T08:07:43;7.15;;;4.45;;
15240;SDS011;7723;52.170;9.978;2023-07-31T08:10:10;6.53;;;4.40;;
15240;SDS011;7723;52.170;9.978;2023-07-31T08:12:37;8.50;;;4.70;;
15240;SDS011;7723;52.170;9.978;2023-07-31T08:15:04;7.72;;;4.50;;
15240;SDS011;7723;52.170;9.978;2023-07-31T08:17:34;5.68;;;4.22;;
15240;SDS011;7723;52.170;9.978;2023-07-31T08:20:01;10.75;;;5.10;;
15240;SDS011;7723;52.170;9.978;2023-07-31T08:22:28;5.32;;;4.07;;
15240;SDS011;7723;52.170;9.978;2023-07-31T08:24:55;7.07;;;4.13;;
15240;SDS011;7723;52.170;9.978;2023-07-31T08:27:23;5.60;;;4.22;;
15240;SDS011;7723;52.170;9.978;2023-07-31T08:29:51;7.70;;;4.60;;
15240;SDS011;7723;52.170;9.978;2023-07-31T08:32:18;5.80;;;4.28;;
15240;SDS011;7723;52.170;9.978;2023-07-31T08:34:47;10.50;;;4.68;;
15240;SDS011;7723;52.170;9.978;2023-07-31T08:37:14;8.98;;;4.45;;
15240;SDS011;7723;52.170;9.978;2023-07-31T08:39:41;9.63;;;4.50;;
15240;SDS011;7723;52.170;9.978;2023-07-31T08:42:08;8.57;;;4.78;;
15240;SDS011;7723;52.170;9.978;2023-07-31T08:44:35;8.82;;;4.35;;
15240;SDS011;7723;52.170;9.978;2023-07-31T08:47:04;5.45;;;3.83;;
15240;SDS011;7723;52.170;9.978;2023-07-31T08:49:32;5.60;;;3.65;;
15240;SDS011;7723;52.170;9.978;2023-07-31T08:52:02;6.65;;;3.47;;
15240;SDS011;7723;52.170;9.978;2023-07-31T08:54:30;8.18;;;3.70;;
15240;SDS011;7723;52.170;9.978;2023-07-31T08:56:58;3.92;;;3.10;;
15240;SDS011;7723;52.170;9.978;2023-07-31T08:59:26;5.88;;;3.80;;
15240;SDS011;7723;52.170;9.978;2023-07-31T09:01:57;5.25;;;2.92;;
15240;SDS011;7723;52.170;9.978;2023-07-31T09:04:29;5.57;;;2.58;;
15240;SDS011;7723;52.170;9.978;2023-07-31T09:06:59;7.93;;;3.38;;
15240;SDS011;7723;52.170;9.978;2023-07-31T09:09:29;3.30;;;2.42;;
15240;SDS011;7723;52.170;9.978;2023-07-31T09:11:57;4.10;;;2.78;;
15240;SDS011;7723;52.170;9.978;2023-07-31T09:14:25;3.28;;;2.58;;
15240;SDS011;7723;52.170;9.978;2023-07-31T09:16:53;3.13;;;2.33;;
15240;SDS011;7723;52.170;9.978;2023-07-31T09:19:27;4.25;;;2.33;;
15240;SDS011;7723;52.170;9.978;2023-07-31T09:21:56;3.70;;;1.83;;
15240;SDS011;7723;52.170;9.978;2023-07-31T09:24:26;3.65;;;2.20;;
15240;SDS011;7723;52.170;9.978;2023-07-31T09:26:57;3.97;;;2.35;;
15240;SDS011;7723;52.170;9.978;2023-07-31T09:29:25;6.57;;;2.60;;
15240;SDS011;7723;52.170;9.978;2023-07-31T09:31:52;4.65;;;2.50;;
15240;SDS011;7723;52.170;9.978;2023-07-31T09:34:20;4.07;;;2.38;;
15240;SDS011;7723;52.170;9.978;2023-07-31T09:36:57;2.53;;;2.33;;
15240;SDS011;7723;52.170;9.978;2023-07-31T09:39:27;4.47;;;2.85;;
15240;SDS011;7723;52.170;9.978;2023-07-31T09:41:57;3.92;;;2.92;;
15240;SDS011;7723;52.170;9.978;2023-07-31T09:44:36;4.07;;;2.33;;
15240;SDS011;7723;52.170;9.978;2023-07-31T09:47:05;8.68;;;2.75;;
15240;SDS011;7723;52.170;9.978;2023-07-31T09:49:32;5.82;;;3.03;;
15240;SDS011;7723;52.170;9.978;2023-07-31T09:51:59;5.10;;;3.10;;
15240;SDS011;7723;52.170;9.978;2023-07-31T09:54:27;3.80;;;2.35;;
15240;SDS011;7723;52.170;9.978;2023-07-31T09:56:54;3.40;;;2.42;;
15240;SDS011;7723;52.170;9.978;2023-07-31T09:59:24;3.03;;;2.35;;
15240;SDS011;7723;52.170;9.978;2023-07-31T10:01:51;3.78;;;2.60;;
15240;SDS011;7723;52.170;9.978;2023-07-31T10:04:21;3.53;;;2.83;;
15240;SDS011;7723;52.170;9.978;2023-07-31T10:06:53;5.68;;;2.80;;
15240;SDS011;7723;52.170;9.978;2023-07-31T10:09:22;4.53;;;2.40;;
15240;SDS011;7723;52.170;9.978;2023-07-31T10:11:53;4.60;;;2.33;;
15240;SDS011;7723;52.170;9.978;2023-07-31T10:14:27;4.60;;;2.42;;
15240;SDS011;7723;52.170;9.978;2023-07-31T10:16:55;3.25;;;2.70;;
15240;SDS011;7723;52.170;9.978;2023-07-31T10:19:24;4.03;;;2.78;;
15240;SDS011;7723;52.170;9.978;2023-07-31T10:21:52;3.50;;;2.10;;
15240;SDS011;7723;52.170;9.978;2023-07-31T10:24:21;2.65;;;2.08;;
15240;SDS011;7723;52.170;9.978;2023-07-31T10:26:50;3.53;;;2.40;;
15240;SDS011;7723;52.170;9.978;2023-07-31T10:29:19;4.10;;;2.33;;
15240;SDS011;7723;52.170;9.978;2023-07-31T10:31:50;5.65;;;2.40;;
15240;SDS011;7723;52.170;9.978;2023-07-31T10:34:18;2.42;;;2.17;;
15240;SDS011;7723;52.170;9.978;2023-07-31T10:36:45;3.42;;;2.38;;
15240;SDS011;7723;52.170;9.978;2023-07-31T10:42:10;3.88;;;2.55;;
15240;SDS011;7723;52.170;9.978;2023-07-31T10:44:38;4.57;;;2.47;;
15240;SDS011;7723;52.170;9.978;2023-07-31T10:47:11;2.65;;;2.40;;
15240;SDS011;7723;52.170;9.978;2023-07-31T10:49:41;3.58;;;2.38;;
15240;SDS011;7723;52.170;9.978;2023-07-31T10:52:12;3.67;;;2.40;;
15240;SDS011;7723;52.170;9.978;2023-07-31T10:54:40;3.67;;;2.33;;
15240;SDS011;7723;52.170;9.978;2023-07-31T10:57:18;3.28;;;2.10;;
15240;SDS011;7723;52.170;9.978;2023-07-31T10:59:46;2.47;;;2.00;;
15240;SDS011;7723;52.170;9.978;2023-07-31T11:02:24;2.20;;;1.95;;
15240;SDS011;7723;52.170;9.978;2023-07-31T11:05:07;5.43;;;2.50;;
15240;SDS011;7723;52.170;9.978;2023-07-31T11:07:48;3.55;;;2.17;;
15240;SDS011;7723;52.170;9.978;2023-07-31T11:10:16;3.53;;;1.80;;
15240;SDS011;7723;52.170;9.978;2023-07-31T11:12:44;3.38;;;2.10;;
15240;SDS011;7723;52.170;9.978;2023-07-31T11:15:12;3.15;;;1.95;;
15240;SDS011;7723;52.170;9.978;2023-07-31T11:17:41;4.13;;;2.22;;
15240;SDS011;7723;52.170;9.978;2023-07-31T11:20:08;2.45;;;1.67;;
15240;SDS011;7723;52.170;9.978;2023-07-31T11:22:35;2.85;;;2.05;;
15240;SDS011;7723;52.170;9.978;2023-07-31T11:25:03;2.90;;;1.90;;
15240;SDS011;7723;52.170;9.978;2023-07-31T11:27:30;4.57;;;2.65;;
15240;SDS011;7723;52.170;9.978;2023-07-31T11:30:05;3.00;;;1.90;;
15240;SDS011;7723;52.170;9.978;2023-07-31T11:32:33;2.63;;;1.90;;
15240;SDS011;7723;52.170;9.978;2023-07-31T11:35:04;3.25;;;1.70;;
15240;SDS011;7723;52.170;9.978;2023-07-31T11:37:39;1.50;;;1.33;;
15240;SDS011;7723;52.170;9.978;2023-07-31T11:40:07;3.80;;;1.95;;
15240;SDS011;7723;52.170;9.978;2023-07-31T11:42:35;2.50;;;1.80;;
15240;SDS011;7723;52.170;9.978;2023-07-31T11:45:03;2.55;;;1.60;;
15240;SDS011;7723;52.170;9.978;2023-07-31T11:47:31;2.20;;;1.60;;
15240;SDS011;7723;52.170;9.978;2023-07-31T11:50:00;2.08;;;1.85;;
15240;SDS011;7723;52.170;9.978;2023-07-31T11:52:30;2.97;;;1.75;;
15240;SDS011;7723;52.170;9.978;2023-07-31T11:55:03;3.58;;;1.60;;
15240;SDS011;7723;52.170;9.978;2023-07-31T11:57:32;3.63;;;1.80;;
15240;SDS011;7723;52.170;9.978;2023-07-31T11:59:59;3.38;;;1.42;;
15240;SDS011;7723;52.170;9.978;2023-07-31T12:02:28;3.15;;;1.60;;
15240;SDS011;7723;52.170;9.978;2023-07-31T12:04:55;1.52;;;1.17;;
15240;SDS011;7723;52.170;9.978;2023-07-31T12:07:21;2.30;;;1.35;;
15240;SDS011;7723;52.170;9.978;2023-07-31T12:09:52;4.57;;;1.40;;
15240;SDS011;7723;52.170;9.978;2023-07-31T12:12:20;2.35;;;1.48;;
15240;SDS011;7723;52.170;9.978;2023-07-31T12:14:47;3.28;;;1.60;;
15240;SDS011;7723;52.170;9.978;2023-07-31T12:17:16;2.35;;;1.60;;
15240;SDS011;7723;52.170;9.978;2023-07-31T12:19:45;1.42;;;1.27;;
15240;SDS011;7723;52.170;9.978;2023-07-31T12:22:12;2.50;;;1.40;;
15240;SDS011;7723;52.170;9.978;2023-07-31T12:24:39;1.83;;;1.50;;
15240;SDS011;7723;52.170;9.978;2023-07-31T12:27:11;3.60;;;1.50;;
15240;SDS011;7723;52.170;9.978;2023-07-31T12:29:42;1.25;;;1.15;;
15240;SDS011;7723;52.170;9.978;2023-07-31T12:32:19;1.63;;;1.20;;
15240;SDS011;7723;52.170;9.978;2023-07-31T12:34:47;1.85;;;1.30;;
15240;SDS011;7723;52.170;9.978;2023-07-31T12:37:15;1.73;;;1.40;;
15240;SDS011;7723;52.170;9.978;2023-07-31T12:39:42;2.20;;;1.60;;
15240;SDS011;7723;52.170;9.978;2023-07-31T12:42:09;1.80;;;1.40;;
15240;SDS011;7723;52.170;9.978;2023-07-31T12:44:37;1.88;;;1.35;;
15240;SDS011;7723;52.170;9.978;2023-07-31T12:47:05;2.33;;;1.33;;
15240;SDS011;7723;52.170;9.978;2023-07-31T12:49:32;1.98;;;1.45;;
15240;SDS011;7723;52.170;9.978;2023-07-31T12:51:59;2.88;;;1.38;;
15240;SDS011;7723;52.170;9.978;2023-07-31T12:54:26;1.48;;;0.88;;
15240;SDS011;7723;52.170;9.978;2023-07-31T12:56:53;1.58;;;0.90;;
15240;SDS011;7723;52.170;9.978;2023-07-31T12:59:20;1.75;;;1.00;;
15240;SDS011;7723;52.170;9.978;2023-07-31T13:01:48;1.67;;;0.80;;
15240;SDS011;7723;52.170;9.978;2023-07-31T13:04:15;1.42;;;1.00;;
15240;SDS011;7723;52.170;9.978;2023-07-31T13:06:43;0.98;;;0.70;;
15240;SDS011;7723;52.170;9.978;2023-07-31T13:09:10;2.95;;;1.08;;
15240;SDS011;7723;52.170;9.978;2023-07-31T13:11:37;1.52;;;0.73;;
15240;SDS011;7723;52.170;9.978;2023-07-31T13:14:04;1.25;;;0.60;;
15240;SDS011;7723;52.170;9.978;2023-07-31T13:16:32;1.05;;;0.95;;
15240;SDS011;7723;52.170;9.978;2023-07-31T13:19:00;1.13;;;0.95;;
15240;SDS011;7723;52.170;9.978;2023-07-31T13:21:27;1.42;;;0.77;;
15240;SDS011;7723;52.170;9.978;2023-07-31T13:23:54;1.10;;;0.90;;
15240;SDS011;7723;52.170;9.978;2023-07-31T13:26:24;0.77;;;0.70;;
15240;SDS011;7723;52.170;9.978;2023-07-31T13:28:51;1.05;;;0.75;;
15240;SDS011;7723;52.170;9.978;2023-07-31T13:31:18;0.60;;;0.60;;
15240;SDS011;7723;52.170;9.978;2023-07-31T13:33:45;0.60;;;0.60;;
15240;SDS011;7723;52.170;9.978;2023-07-31T13:36:14;0.60;;;0.50;;
15240;SDS011;7723;52.170;9.978;2023-07-31T13:38:41;0.85;;;0.50;;
15240;SDS011;7723;52.170;9.978;2023-07-31T13:41:08;0.70;;;0.52;;
15240;SDS011;7723;52.170;9.978;2023-07-31T13:43:35;1.35;;;0.50;;
15240;SDS011;7723;52.170;9.978;2023-07-31T13:46:03;0.93;;;0.60;;
15240;SDS011;7723;52.170;9.978;2023-07-31T13:48:31;0.60;;;0.60;;
15240;SDS011;7723;52.170;9.978;2023-07-31T13:50:59;0.50;;;0.50;;
15240;SDS011;7723;52.170;9.978;2023-07-31T13:53:28;0.70;;;0.40;;
15240;SDS011;7723;52.170;9.978;2023-07-31T13:55:55;0.40;;;0.40;;
15240;SDS011;7723;52.170;9.978;2023-07-31T13:58:22;0.45;;;0.43;;
15240;SDS011;7723;52.170;9.978;2023-07-31T14:00:49;0.60;;;0.60;;
15240;SDS011;7723;52.170;9.978;2023-07-31T14:03:16;1.58;;;0.57;;
15240;SDS011;7723;52.170;9.978;2023-07-31T14:05:43;1.73;;;0.60;;
15240;SDS011;7723;52.170;9.978;2023-07-31T14:08:10;0.57;;;0.57;;
15240;SDS011;7723;52.170;9.978;2023-07-31T14:10:39;0.60;;;0.50;;
15240;SDS011;7723;52.170;9.978;2023-07-31T14:13:06;0.57;;;0.50;;
15240;SDS011;7723;52.170;9.978;2023-07-31T14:15:34;1.52;;;0.50;;
15240;SDS011;7723;52.170;9.978;2023-07-31T14:18:01;1.35;;;0.55;;
15240;SDS011;7723;52.170;9.978;2023-07-31T14:20:28;1.08;;;0.77;;
15240;SDS011;7723;52.170;9.978;2023-07-31T14:22:56;1.85;;;0.60;;
15240;SDS011;7723;52.170;9.978;2023-07-31T14:25:24;0.70;;;0.60;;
15240;SDS011;7723;52.170;9.978;2023-07-31T14:27:52;0.75;;;0.50;;
15240;SDS011;7723;52.170;9.978;2023-07-31T14:30:19;1.13;;;0.70;;
15240;SDS011;7723;52.170;9.978;2023-07-31T14:32:47;0.75;;;0.60;;
15240;SDS011;7723;52.170;9.978;2023-07-31T14:35:14;1.38;;;0.60;;
15240;SDS011;7723;52.170;9.978;2023-07-31T14:37:41;3.75;;;0.80;;
15240;SDS011;7723;52.170;9.978;2023-07-31T14:40:11;2.42;;;0.70;;
15240;SDS011;7723;52.170;9.978;2023-07-31T14:42:39;3.75;;;0.75;;
15240;SDS011;7723;52.170;9.978;2023-07-31T14:45:08;0.75;;;0.70;;
15240;SDS011;7723;52.170;9.978;2023-07-31T14:47:36;0.60;;;0.47;;
15240;SDS011;7723;52.170;9.978;2023-07-31T14:50:03;0.88;;;0.70;;
15240;SDS011;7723;52.170;9.978;2023-07-31T14:52:31;0.98;;;0.73;;
15240;SDS011;7723;52.170;9.978;2023-07-31T14:54:58;1.05;;;0.68;;
15240;SDS011;7723;52.170;9.978;2023-07-31T14:57:26;1.00;;;0.90;;
15240;SDS011;7723;52.170;9.978;2023-07-31T14:59:53;1.05;;;0.80;;
15240;SDS011;7723;52.170;9.978;2023-07-31T15:02:21;1.23;;;0.90;;
15240;SDS011;7723;52.170;9.978;2023-07-31T15:04:48;1.70;;;1.20;;
15240;SDS011;7723;52.170;9.978;2023-07-31T15:07:15;1.10;;;1.00;;
15240;SDS011;7723;52.170;9.978;2023-07-31T15:09:42;1.23;;;1.10;;